Arcadia, Kansas
Current Conditions -  °F | °C
As of 7:15 AM on Thursday 18 Dec 2014 (Local Time) from KPTS Reporting Station
Haze Haze  
Wind Chill:   Ceiling: 400
Heat Index:   Visibility: 3mi
Dew Point:   Wind: 0mph
Humidity: 100%   Direction: NA
Pressure: 30.17"   Gusts: NA
Location:  37.64°N, 94.62°W
Report Text: KPTS 181315Z AUTO 00000KT 3SM BR OVC004 02/02 A3017 RMK AO2 T00200021
Loading
Personal Weather Stations






























Interactive Weather Map New forecast layout! Learn more

10-Day Weather Forecast

Advertisements
Track Severe Weather on mobile